Time;durP1;ratioP1;P1;durP2;ratioP2;P2;SDS_P1;SDS_P2;PMS_P1;PMS_P2;Temp;Humidity;BMP_temperature;BMP_pressure;BME280_temperature;BME280_humidity;BME280_pressure;Samples;Min_cycle;Max_cycle;Signal;HPM_P1;HPM_P2
2021/07/23 00:03:50;;;;;;;10.82;7.00;;;;;;;16.53;58.75;100139.88;10365904;28;20136;-60
2021/07/23 00:09:05;;;;;;;9.93;6.70;;;;;;;16.46;59.09;100134.25;10364907;28;20046;-60
2021/07/23 00:14:07;;;;;;;12.65;6.75;;;;;;;16.37;58.82;100127.03;10365032;28;20057;-60
2021/07/23 00:19:09;;;;;;;13.07;6.68;;;;;;;16.35;59.29;100123.66;10364718;28;20100;-60
2021/07/23 00:24:10;;;;;;;10.57;7.07;;;;;;;16.32;59.08;100131.84;10363055;28;20050;-60
2021/07/23 00:29:12;;;;;;;11.38;7.07;;;;;;;16.21;59.58;100131.84;10364170;28;20561;-60
2021/07/23 00:34:13;;;;;;;13.05;7.15;;;;;;;16.28;59.19;100135.69;10364398;28;20085;-60
2021/07/23 00:39:15;;;;;;;12.32;7.68;;;;;;;16.28;59.29;100132.22;10363794;28;20056;-60
2021/07/23 00:44:17;;;;;;;11.65;6.93;;;;;;;16.17;59.64;100131.25;10363971;28;20325;-60
2021/07/23 00:49:18;;;;;;;11.45;7.32;;;;;;;16.18;59.59;100134.75;10363897;28;20056;-60
2021/07/23 00:54:20;;;;;;;10.70;7.18;;;;;;;16.15;59.28;100130.56;10363907;28;20484;-60
2021/07/23 00:59:22;;;;;;;10.55;6.95;;;;;;;16.03;59.74;100130.69;10363519;28;20053;-60
2021/07/23 01:04:24;;;;;;;10.82;6.68;;;;;;;16.00;59.52;100125.63;10363322;28;20041;-60
2021/07/23 01:09:26;;;;;;;11.18;6.97;;;;;;;15.93;59.61;100127.09;10362707;28;20050;-60
2021/07/23 01:14:28;;;;;;;11.15;7.22;;;;;;;15.90;59.85;100116.75;10363504;28;20161;-60
2021/07/23 01:19:37;;;;;;;10.60;7.22;;;;;;;15.81;60.18;100121.00;10377602;28;20521;-60
2021/07/23 01:24:40;;;;;;;11.27;6.72;;;;;;;15.73;60.27;100117.25;10362623;28;20176;-60
2021/07/23 01:29:41;;;;;;;11.52;6.88;;;;;;;15.65;60.38;100109.13;10362401;28;20107;-60
2021/07/23 01:34:43;;;;;;;11.73;7.05;;;;;;;15.60;60.67;100113.88;10362691;28;20520;-60
2021/07/23 01:39:46;;;;;;;9.85;7.00;;;;;;;15.66;60.61;100109.00;10360586;28;20129;-60
2021/07/23 01:44:48;;;;;;;9.10;7.18;;;;;;;15.60;60.59;100112.09;10362632;28;20508;-60
2021/07/23 01:49:50;;;;;;;12.55;7.32;;;;;;;15.61;60.53;100110.31;10376888;28;20054;-60
2021/07/23 01:54:51;;;;;;;9.48;6.97;;;;;;;15.65;60.20;100109.13;10361368;28;20145;-60
2021/07/23 01:59:53;;;;;;;11.73;7.00;;;;;;;15.56;60.29;100102.75;10345779;28;20506;-60
2021/07/23 02:04:56;;;;;;;11.60;7.15;;;;;;;15.44;60.41;100108.94;10368366;28;20458;-60
2021/07/23 02:09:57;;;;;;;11.98;7.00;;;;;;;15.40;60.15;100113.63;10369323;28;20173;-60
2021/07/23 02:14:59;;;;;;;10.45;6.82;;;;;;;15.33;60.58;100103.63;10372764;28;20046;-60
2021/07/23 02:20:01;;;;;;;13.80;7.38;;;;;;;15.22;60.81;100101.00;10376438;28;20129;-60
2021/07/23 02:25:04;;;;;;;12.10;7.28;;;;;;;15.31;60.64;100100.28;10375252;28;20096;-60
2021/07/23 02:30:06;;;;;;;11.18;7.28;;;;;;;15.22;60.90;100098.38;10377172;28;20130;-59
2021/07/23 02:35:09;;;;;;;9.98;6.47;;;;;;;15.23;60.91;100100.03;10388713;28;20176;-60
2021/07/23 02:40:11;;;;;;;14.20;7.57;;;;;;;15.24;60.56;100094.66;10373443;28;20156;-60
2021/07/23 02:45:12;;;;;;;12.45;7.63;;;;;;;15.15;60.73;100092.72;10392303;28;20053;-60
2021/07/23 02:50:14;;;;;;;14.00;7.30;;;;;;;15.09;60.93;100092.34;10398230;28;20188;-60
2021/07/23 02:55:16;;;;;;;11.45;7.47;;;;;;;15.07;60.85;100091.63;10388228;28;20136;-60
2021/07/23 03:00:17;;;;;;;10.13;7.53;;;;;;;14.97;60.80;100088.84;10373780;28;20081;-60
2021/07/23 03:05:19;;;;;;;11.15;7.47;;;;;;;14.89;61.07;100087.72;10370093;28;20042;-60
2021/07/23 03:10:21;;;;;;;10.93;7.20;;;;;;;14.85;61.23;100079.22;10368943;28;20077;-60
2021/07/23 03:15:23;;;;;;;11.95;7.97;;;;;;;14.77;61.30;100080.75;10366622;28;20085;-60
2021/07/23 03:20:24;;;;;;;11.45;7.38;;;;;;;14.71;61.42;100081.22;10367074;28;20128;-60
2021/07/23 03:25:26;;;;;;;9.90;7.30;;;;;;;14.71;61.27;100070.69;10365720;28;20406;-60
2021/07/23 03:30:28;;;;;;;12.70;7.28;;;;;;;14.63;61.69;100073.91;10366777;28;20149;-60
2021/07/23 03:35:30;;;;;;;14.07;7.35;;;;;;;14.60;61.75;100074.09;10366333;28;20137;-60
2021/07/23 03:40:31;;;;;;;11.27;7.38;;;;;;;14.64;61.67;100064.19;10366467;28;20153;-59
2021/07/23 03:45:33;;;;;;;11.48;7.10;;;;;;;14.66;61.65;100062.28;10380788;28;20415;-60
2021/07/23 03:50:35;;;;;;;11.15;6.45;;;;;;;14.71;61.47;100062.78;10366190;28;20049;-60
2021/07/23 03:55:37;;;;;;;11.57;7.05;;;;;;;14.71;61.44;100066.25;10365421;28;20129;-60
2021/07/23 04:00:38;;;;;;;10.07;7.32;;;;;;;14.67;61.18;100056.91;10364363;28;20052;-60
2021/07/23 04:05:40;;;;;;;9.93;7.07;;;;;;;14.71;61.26;100057.53;10365581;28;20128;-60
2021/07/23 04:10:42;;;;;;;10.98;6.70;;;;;;;14.71;61.20;100065.41;10364734;28;20823;-60
2021/07/23 04:15:44;;;;;;;9.13;7.35;;;;;;;14.82;60.70;100062.84;10364795;28;20049;-59
2021/07/23 04:20:45;;;;;;;10.30;7.43;;;;;;;14.93;60.53;100055.78;10364393;28;20052;-60
2021/07/23 04:25:47;;;;;;;17.42;9.20;;;;;;;14.97;59.94;100061.66;10364453;28;20510;-60
2021/07/23 04:30:49;;;;;;;15.60;7.57;;;;;;;14.77;60.15;100072.84;10363845;28;20149;-60
2021/07/23 04:35:51;;;;;;;14.00;8.52;;;;;;;15.06;59.66;100067.06;10363418;28;20060;-59
2021/07/23 04:40:52;;;;;;;11.52;7.43;;;;;;;15.83;58.34;100068.97;10363267;28;20050;-59
2021/07/23 04:45:54;;;;;;;11.13;7.43;;;;;;;16.65;56.30;100065.75;10391870;28;20405;-60
2021/07/23 04:50:56;;;;;;;9.95;7.63;;;;;;;17.24;54.66;100073.13;10386055;28;20050;-60
2021/07/23 04:56:00;;;;;;;12.23;7.47;;;;;;;17.97;53.06;100076.41;10361839;28;20042;-60
2021/07/23 05:01:02;;;;;;;9.77;6.53;;;;;;;18.97;51.21;100065.50;10363280;28;20510;-60
2021/07/23 05:06:05;;;;;;;9.15;6.15;;;;;;;19.62;49.22;100071.78;10378781;28;20058;-60
2021/07/23 05:11:15;;;;;;;10.45;6.00;;;;;;;20.28;47.29;100054.69;10364053;28;20137;-60
2021/07/23 05:16:17;;;;;;;8.13;6.00;;;;;;;20.90;46.29;100059.13;10378828;28;20057;-60
2021/07/23 05:21:19;;;;;;;10.00;6.35;;;;;;;21.45;44.93;100060.53;10363891;28;20045;-60
2021/07/23 05:26:21;;;;;;;11.88;6.30;;;;;;;22.19;43.75;100059.88;10362604;28;20052;-60
2021/07/23 05:31:22;;;;;;;10.52;6.40;;;;;;;22.31;43.21;100050.56;10363544;28;20054;-60
2021/07/23 05:36:27;;;;;;;8.98;6.15;;;;;;;21.85;43.37;100050.06;10363902;28;20054;-60
2021/07/23 05:41:29;;;;;;;9.38;6.45;;;;;;;20.82;45.33;100051.06;10363338;28;20053;-60
2021/07/23 05:46:34;;;;;;;9.45;6.63;;;;;;;20.22;46.74;100053.47;10377538;28;20125;-60
2021/07/23 05:51:36;;;;;;;12.35;6.93;;;;;;;19.86;47.92;100057.06;10371472;28;20046;-60
2021/07/23 05:56:38;;;;;;;10.35;7.10;;;;;;;19.63;48.65;100049.56;10371105;28;20148;-60
2021/07/23 06:01:39;;;;;;;12.68;7.88;;;;;;;19.09;49.84;100056.47;10371644;28;20146;-60
2021/07/23 06:06:41;;;;;;;14.18;7.95;;;;;;;18.75;51.36;100051.72;10370834;28;20046;-60
2021/07/23 06:11:43;;;;;;;11.82;7.03;;;;;;;18.72;51.54;100052.84;10370440;28;20053;-60
2021/07/23 06:16:45;;;;;;;10.43;7.25;;;;;;;19.10;51.25;100054.63;10370461;28;20428;-60
2021/07/23 06:21:47;;;;;;;10.85;7.32;;;;;;;19.40;50.91;100052.59;10370765;28;20136;-60
2021/07/23 06:26:48;;;;;;;9.85;6.60;;;;;;;19.67;50.39;100057.09;10370258;28;20128;-59
2021/07/23 06:31:50;;;;;;;10.82;7.20;;;;;;;19.49;50.80;100053.53;10369845;28;20097;-60
2021/07/23 06:36:52;;;;;;;11.93;7.20;;;;;;;19.71;50.38;100058.47;10369770;28;20053;-60
2021/07/23 06:41:53;;;;;;;10.82;7.28;;;;;;;19.81;49.99;100048.69;10369656;28;20050;-60
2021/07/23 06:46:55;;;;;;;11.40;8.45;;;;;;;19.88;49.73;100059.53;10368855;28;20106;-60
2021/07/23 06:51:57;;;;;;;15.45;7.70;;;;;;;19.72;50.48;100059.31;10369205;28;20125;-60
2021/07/23 06:57:03;;;;;;;17.95;9.27;;;;;;;19.95;50.21;100058.00;10368905;28;20045;-60
2021/07/23 07:02:05;;;;;;;11.88;7.97;;;;;;;20.08;50.20;100055.78;10367863;28;20490;-60
2021/07/23 07:07:07;;;;;;;11.90;7.53;;;;;;;20.32;49.76;100053.41;10367130;28;20554;-60
2021/07/23 07:12:10;;;;;;;15.23;7.90;;;;;;;20.69;49.58;100056.78;10367947;28;20494;-60
2021/07/23 07:17:12;;;;;;;12.40;8.35;;;;;;;21.00;49.19;100054.53;10368471;28;20541;-60
2021/07/23 07:22:14;;;;;;;13.90;9.35;;;;;;;21.27;48.43;100053.56;10367950;28;20133;-60
2021/07/23 07:27:16;;;;;;;11.90;8.88;;;;;;;21.35;48.53;100046.50;10383130;28;20038;-60
2021/07/23 07:32:18;;;;;;;14.98;9.68;;;;;;;21.52;47.89;100045.59;10367519;28;20501;-60
2021/07/23 07:37:20;;;;;;;14.18;8.32;;;;;;;22.05;47.59;100042.66;10366811;28;20049;-60
2021/07/23 07:42:23;;;;;;;16.55;8.70;;;;;;;23.69;44.82;100028.97;10365712;28;20057;-60
2021/07/23 07:47:25;;;;;;;14.00;8.38;;;;;;;25.16;41.71;100027.84;10365935;28;20405;-60
2021/07/23 07:52:27;;;;;;;13.77;9.88;;;;;;;26.12;38.65;100025.91;10367149;28;20045;-60
2021/07/23 07:57:29;;;;;;;16.48;9.68;;;;;;;26.42;37.75;100028.28;10365525;28;20077;-60
2021/07/23 08:02:31;;;;;;;16.42;10.50;;;;;;;26.82;37.16;100017.94;10366095;28;20092;-61
2021/07/23 08:07:34;;;;;;;13.80;9.90;;;;;;;27.27;36.04;100018.31;10366322;28;20096;-60
2021/07/23 08:12:36;;;;;;;14.70;9.63;;;;;;;27.31;35.77;100008.84;10364075;28;20449;-61
2021/07/23 08:17:38;;;;;;;15.40;9.85;;;;;;;27.18;35.88;100007.91;10366077;28;20436;-60
2021/07/23 08:22:40;;;;;;;11.75;9.57;;;;;;;26.99;35.70;99998.69;10365368;28;20136;-60
2021/07/23 08:27:41;;;;;;;14.93;10.65;;;;;;;26.88;35.21;99991.16;10365274;28;20129;-61
2021/07/23 08:32:48;;;;;;;12.85;10.65;;;;;;;26.99;35.21;99989.78;10365003;28;20069;-60
2021/07/23 08:37:49;;;;;;;14.48;9.98;;;;;;;27.02;35.22;99992.91;10365047;28;20149;-60
2021/07/23 08:42:51;;;;;;;12.05;10.07;;;;;;;27.12;34.95;99979.97;10363854;28;20068;-61
2021/07/23 08:47:53;;;;;;;12.45;8.93;;;;;;;27.19;34.50;99985.41;10364764;28;20459;-61
2021/07/23 08:52:55;;;;;;;12.52;8.60;;;;;;;27.72;34.42;99978.44;10379680;28;20042;-60
2021/07/23 08:57:56;;;;;;;11.20;8.15;;;;;;;27.82;33.97;99976.25;10364159;28;20471;-60
2021/07/23 09:03:03;;;;;;;11.23;8.32;;;;;;;27.92;33.31;99979.38;10363000;28;20145;-61
2021/07/23 09:08:11;;;;;;;13.18;7.70;;;;;;;27.84;33.19;99969.63;10364398;28;20050;-61
2021/07/23 09:13:23;;;;;;;10.13;7.85;;;;;;;28.20;31.60;99967.44;10362952;28;20473;-60
2021/07/23 09:18:33;;;;;;;11.25;7.43;;;;;;;27.75;31.72;99960.09;10363554;28;20125;-60
2021/07/23 09:23:37;;;;;;;15.30;8.05;;;;;;;27.91;31.75;99953.53;10362483;28;20053;-61
2021/07/23 09:28:40;;;;;;;10.55;7.93;;;;;;;28.07;32.13;99951.31;10363205;28;20058;-61
2021/07/23 09:33:42;;;;;;;12.75;7.07;;;;;;;28.55;32.37;99943.09;10363152;28;20451;-61
2021/07/23 09:38:48;;;;;;;11.68;7.72;;;;;;;28.92;30.63;99937.09;10362159;28;20076;-60
2021/07/23 09:44:12;;;;;;;11.00;7.80;;;;;;;27.86;32.01;99927.25;10362807;28;20137;-61
2021/07/23 09:49:19;;;;;;;13.63;7.40;;;;;;;28.33;31.85;99922.81;10362918;28;20133;-61
2021/07/23 09:54:22;;;;;;;12.85;7.80;;;;;;;28.02;32.08;99915.28;10377224;28;20053;-61
2021/07/23 09:59:49;;;;;;;11.80;8.90;;;;;;;28.08;30.17;99911.78;10363594;28;20157;-61
2021/07/23 10:05:10;;;;;;;14.10;10.02;;;;;;;28.08;30.26;99909.94;10362775;28;20160;-61
2021/07/23 10:10:15;;;;;;;12.57;9.45;;;;;;;28.04;30.78;99910.53;10362926;28;20125;-60
2021/07/23 10:15:19;;;;;;;10.70;8.93;;;;;;;28.45;30.32;99905.00;10362414;28;20089;-60
2021/07/23 10:20:21;;;;;;;12.98;8.85;;;;;;;28.38;30.27;99902.31;10362793;28;20100;-61
2021/07/23 10:25:25;;;;;;;13.00;10.07;;;;;;;28.59;29.86;99898.59;10361837;28;20128;-61
2021/07/23 10:30:30;;;;;;;15.13;9.40;;;;;;;29.00;29.87;99880.31;10362320;28;20180;-61
2021/07/23 10:35:34;;;;;;;15.48;8.85;;;;;;;29.38;29.92;99872.31;10364792;28;20128;-61
2021/07/23 10:40:40;;;;;;;12.25;9.88;;;;;;;28.99;29.64;99866.03;10369333;28;20050;-61
2021/07/23 10:45:42;;;;;;;14.77;9.23;;;;;;;28.45;30.64;99864.66;10369466;28;20547;-61
2021/07/23 10:50:48;;;;;;;12.63;9.10;;;;;;;28.45;30.05;99860.09;10368839;28;20042;-61
2021/07/23 10:55:50;;;;;;;19.30;10.55;;;;;;;28.07;30.51;99851.81;10369027;28;20088;-61
2021/07/23 11:00:55;;;;;;;13.73;8.95;;;;;;;27.86;31.37;99840.41;10369183;28;20133;-61
2021/07/23 11:05:57;;;;;;;12.60;8.88;;;;;;;27.98;29.90;99838.75;10366949;28;20050;-60
2021/07/23 11:10:59;;;;;;;10.25;7.50;;;;;;;27.92;29.40;99837.75;10368128;28;20042;-61
2021/07/23 11:16:17;;;;;;;9.10;7.63;;;;;;;27.90;28.01;99825.53;10368410;28;20042;-61
2021/07/23 11:21:19;;;;;;;12.73;8.00;;;;;;;28.02;29.30;99818.50;10367580;28;20455;-59
2021/07/23 11:26:25;;;;;;;10.25;7.25;;;;;;;28.13;28.67;99809.81;10367550;28;20140;-59
2021/07/23 11:31:33;;;;;;;10.63;7.03;;;;;;;28.42;28.88;99809.38;10366854;28;20126;-59
2021/07/23 11:36:37;;;;;;;8.32;7.43;;;;;;;28.36;28.85;99804.03;10365592;28;20050;-59
2021/07/23 11:42:04;;;;;;;10.57;7.05;;;;;;;28.31;25.27;99804.66;10367467;28;20074;-60
2021/07/23 11:47:06;;;;;;;9.80;6.85;;;;;;;28.38;27.54;99797.41;10366074;28;20490;-61
2021/07/23 11:52:08;;;;;;;10.25;7.03;;;;;;;28.45;27.33;99792.00;10366310;28;20132;-61
2021/07/23 11:57:10;;;;;;;10.60;6.70;;;;;;;28.17;27.26;99778.78;10366870;28;20144;-61
2021/07/23 12:02:12;;;;;;;9.82;6.80;;;;;;;27.92;27.12;99773.22;10366950;28;20177;-61
2021/07/23 12:07:17;;;;;;;8.00;6.38;;;;;;;28.10;27.46;99761.81;10365442;28;20129;-61
2021/07/23 12:12:20;;;;;;;9.00;6.82;;;;;;;28.19;28.15;99755.22;10366096;28;20545;-61
2021/07/23 12:17:22;;;;;;;10.02;6.50;;;;;;;28.39;26.94;99742.56;10365299;28;20525;-61
2021/07/23 12:22:25;;;;;;;9.52;6.78;;;;;;;28.42;28.12;99738.66;10365774;28;20104;-61
2021/07/23 12:27:27;;;;;;;12.05;6.93;;;;;;;28.48;28.18;99732.41;10365192;28;20125;-61
2021/07/23 12:32:30;;;;;;;12.57;6.95;;;;;;;28.49;28.60;99732.19;10364575;28;20089;-61
2021/07/23 12:37:32;;;;;;;10.65;6.82;;;;;;;28.05;28.24;99718.63;10364415;28;20120;-61
2021/07/23 12:42:34;;;;;;;11.68;6.78;;;;;;;28.26;28.07;99707.59;10364821;28;20136;-60
2021/07/23 12:47:45;;;;;;;8.52;6.47;;;;;;;28.42;27.95;99696.41;10363971;28;20136;-61
2021/07/23 12:52:51;;;;;;;9.23;6.47;;;;;;;28.50;27.28;99703.44;10364921;28;20046;-61
2021/07/23 12:57:53;;;;;;;9.13;6.50;;;;;;;28.32;28.10;99701.41;10362876;28;20502;-61
2021/07/23 13:02:58;;;;;;;13.65;7.10;;;;;;;28.50;27.81;99695.38;10364118;28;20081;-61
2021/07/23 13:08:03;;;;;;;9.18;6.57;;;;;;;28.76;27.81;99698.78;10363625;28;20053;-61
2021/07/23 13:13:05;;;;;;;12.20;6.63;;;;;;;28.72;28.05;99688.63;10361975;28;20132;-61
2021/07/23 13:18:06;;;;;;;8.90;6.65;;;;;;;28.99;26.96;99682.91;10363763;28;20045;-61
2021/07/23 13:23:08;;;;;;;9.63;6.47;;;;;;;29.14;25.80;99673.72;10368475;28;20075;-61
2021/07/23 13:28:10;;;;;;;8.38;6.35;;;;;;;29.55;26.91;99661.41;10375960;28;20041;-61
2021/07/23 13:33:12;;;;;;;9.70;6.47;;;;;;;29.93;25.88;99661.28;10359881;28;20085;-61
2021/07/23 13:38:20;;;;;;;8.45;7.00;;;;;;;29.51;26.34;99659.38;10360868;28;20046;-61
2021/07/23 13:43:22;;;;;;;8.77;6.82;;;;;;;28.62;28.58;99675.66;10361825;28;20077;-61
2021/07/23 13:48:24;;;;;;;10.27;6.78;;;;;;;28.22;29.02;99666.03;10361898;28;20528;-61
2021/07/23 13:53:26;;;;;;;11.10;7.57;;;;;;;27.81;29.70;99670.91;10362209;28;20117;-61
2021/07/23 13:58:27;;;;;;;13.15;7.13;;;;;;;27.48;30.70;99666.31;10356612;28;20045;-61
2021/07/23 14:03:30;;;;;;;11.88;6.88;;;;;;;27.56;30.80;99667.16;10344032;28;20133;-61
2021/07/23 14:08:32;;;;;;;10.50;7.10;;;;;;;28.28;30.45;99657.09;10344465;28;20050;-60
2021/07/23 14:13:33;;;;;;;10.60;6.47;;;;;;;28.54;27.11;99662.44;10380063;28;20110;-61
2021/07/23 14:18:35;;;;;;;10.73;6.47;;;;;;;28.86;27.09;99650.72;10358777;28;20045;-60
2021/07/23 14:23:37;;;;;;;9.80;7.00;;;;;;;28.70;27.79;99655.72;10353946;28;20046;-61
2021/07/23 14:28:39;;;;;;;8.25;6.25;;;;;;;29.17;27.65;99646.38;10363485;28;20049;-61
2021/07/23 14:33:42;;;;;;;10.35;6.40;;;;;;;29.40;28.07;99643.94;10358409;28;20078;-61
2021/07/23 14:38:44;;;;;;;9.48;6.30;;;;;;;29.39;28.00;99645.81;10366196;28;20148;-61
2021/07/23 14:43:46;;;;;;;9.65;6.75;;;;;;;29.43;26.71;99655.09;10365036;28;20137;-61
2021/07/23 14:48:48;;;;;;;10.15;5.97;;;;;;;28.92;27.15;99649.00;10364520;28;20080;-61
2021/07/23 14:53:50;;;;;;;10.38;5.93;;;;;;;28.51;26.96;99635.94;10339515;28;20046;-60
2021/07/23 14:58:52;;;;;;;10.50;6.53;;;;;;;28.24;27.82;99634.38;10383280;28;20528;-61
2021/07/23 15:03:53;;;;;;;8.52;6.13;;;;;;;27.92;29.16;99629.91;10366191;28;20441;-60
2021/07/23 15:08:55;;;;;;;13.80;6.13;;;;;;;27.60;30.96;99625.41;10372438;28;20141;-60
2021/07/23 15:13:57;;;;;;;10.23;6.00;;;;;;;27.38;30.44;99616.75;10380234;28;20057;-60
2021/07/23 15:18:59;;;;;;;10.05;6.47;;;;;;;27.43;29.60;99615.09;10380189;28;20545;-60
2021/07/23 15:24:00;;;;;;;10.18;6.20;;;;;;;27.91;30.87;99606.78;10335392;28;20125;-60
2021/07/23 15:29:03;;;;;;;12.93;6.15;;;;;;;28.26;29.96;99605.41;10346164;28;20066;-61
2021/07/23 15:34:04;;;;;;;11.00;6.30;;;;;;;28.35;26.89;99593.41;10349793;28;20045;-61
2021/07/23 15:39:06;;;;;;;10.80;5.90;;;;;;;28.60;27.91;99594.31;10353681;28;20081;-61
2021/07/23 15:44:08;;;;;;;7.47;5.72;;;;;;;28.59;28.37;99584.56;10346276;28;20085;-61
2021/07/23 15:49:09;;;;;;;8.80;5.75;;;;;;;28.69;28.28;99581.41;10365272;28;20041;-60
2021/07/23 15:54:11;;;;;;;10.68;6.15;;;;;;;28.72;28.25;99581.81;10333646;28;20065;-61
2021/07/23 15:59:13;;;;;;;8.77;5.75;;;;;;;28.53;27.98;99584.59;10349577;28;20046;-61
2021/07/23 16:04:17;;;;;;;11.43;5.95;;;;;;;28.59;27.98;99567.59;10353734;28;20145;-61
2021/07/23 16:09:19;;;;;;;9.07;5.85;;;;;;;28.85;26.92;99570.97;10362092;28;20049;-61
2021/07/23 16:14:21;;;;;;;8.25;5.35;;;;;;;28.60;27.67;99564.72;10357030;28;20510;-61
2021/07/23 16:19:22;;;;;;;8.40;5.50;;;;;;;28.65;28.07;99562.19;10336773;28;20128;-61
2021/07/23 16:24:26;;;;;;;8.75;5.57;;;;;;;28.48;27.46;99558.38;10356911;28;20490;-61
2021/07/23 16:29:30;;;;;;;10.45;5.78;;;;;;;28.60;27.65;99550.44;10356942;28;20057;-61
2021/07/23 16:34:35;;;;;;;9.15;5.95;;;;;;;28.36;27.81;99553.88;10364427;28;20125;-61
2021/07/23 16:39:37;;;;;;;7.03;5.75;;;;;;;28.16;29.30;99551.25;10380593;28;20613;-61
2021/07/23 16:44:39;;;;;;;7.05;5.70;;;;;;;28.23;29.05;99543.97;10341115;28;20089;-61
2021/07/23 16:49:40;;;;;;;11.32;5.88;;;;;;;28.08;29.40;99546.94;10363851;28;20124;-61
2021/07/23 16:54:42;;;;;;;7.28;5.80;;;;;;;27.95;29.81;99548.88;10386553;28;20199;-61
2021/07/23 16:59:44;;;;;;;8.85;5.80;;;;;;;27.93;29.61;99543.69;10385907;28;20095;-61
2021/07/23 17:04:45;;;;;;;7.85;6.18;;;;;;;27.76;30.26;99531.78;10366122;28;20061;-61
2021/07/23 17:09:47;;;;;;;7.50;6.22;;;;;;;27.69;30.08;99524.75;10386592;28;20132;-60
2021/07/23 17:14:49;;;;;;;11.15;5.95;;;;;;;27.64;31.46;99519.16;10345621;28;20294;-61
2021/07/23 17:19:54;;;;;;;12.75;6.47;;;;;;;27.64;30.88;99520.00;10327712;28;20133;-60
2021/07/23 17:24:57;;;;;;;8.27;6.45;;;;;;;27.43;31.44;99521.06;10347423;28;20050;-61
2021/07/23 17:29:59;;;;;;;11.20;6.35;;;;;;;27.17;32.19;99518.44;10333544;28;20945;-60
2021/07/23 17:35:01;;;;;;;10.13;5.93;;;;;;;27.24;30.42;99507.69;10355146;28;20086;-61
2021/07/23 17:40:03;;;;;;;10.43;6.32;;;;;;;27.21;31.64;99503.56;10328621;28;20054;-61
2021/07/23 17:45:58;;;;;;;12.40;6.20;;;;;;;27.16;31.70;99505.19;10350346;28;20046;-61
2021/07/23 17:50:29;;;;;;;9.70;6.85;;;;;;;26.96;32.72;99494.44;10341255;28;20484;-61
2021/07/23 17:55:31;;;;;;;9.32;6.82;;;;;;;26.72;33.58;99486.19;10343997;28;20056;-61
2021/07/23 18:00:33;;;;;;;11.55;6.75;;;;;;;26.59;33.24;99498.56;10361606;28;20451;-61
2021/07/23 18:05:38;;;;;;;10.20;6.50;;;;;;;26.54;33.23;99501.03;10369079;28;20057;-61
2021/07/23 18:10:40;;;;;;;9.43;6.85;;;;;;;26.44;35.46;99502.44;10348383;28;20517;-61
2021/07/23 18:15:42;;;;;;;10.48;7.35;;;;;;;26.03;35.54;99493.66;10344031;28;20054;-61
2021/07/23 18:20:43;;;;;;;17.88;7.60;;;;;;;25.97;35.77;99484.59;10345259;28;20080;-60
2021/07/23 18:25:45;;;;;;;8.85;7.15;;;;;;;25.76;35.97;99484.66;10370521;28;20060;-61
2021/07/23 18:30:47;;;;;;;13.10;7.03;;;;;;;25.65;35.42;99490.63;10356130;28;20049;-61
2021/07/23 18:35:49;;;;;;;10.82;7.60;;;;;;;25.39;35.75;99488.59;10369645;28;20065;-60
2021/07/23 18:40:52;;;;;;;11.98;7.25;;;;;;;25.12;35.87;99494.81;10344445;28;20048;-60
2021/07/23 18:45:53;;;;;;;10.88;7.68;;;;;;;25.02;36.30;99480.91;10375122;28;20084;-61
2021/07/23 18:50:55;;;;;;;11.60;7.25;;;;;;;25.00;36.57;99481.09;10370108;28;20050;-61
2021/07/23 18:55:57;;;;;;;10.05;7.43;;;;;;;24.93;37.50;99485.59;10367686;28;20046;-60
2021/07/23 19:00:59;;;;;;;10.60;7.72;;;;;;;24.73;38.83;99481.94;10364599;28;20454;-61
2021/07/23 19:06:01;;;;;;;28.90;19.85;;;;;;;24.41;38.47;99492.31;10364000;28;20532;-61
2021/07/23 19:11:10;;;;;;;12.18;9.43;;;;;;;24.01;39.28;99489.16;10363776;28;20049;-61
2021/07/23 19:16:12;;;;;;;26.08;18.23;;;;;;;23.84;40.25;99490.38;10347393;28;20077;-61
2021/07/23 19:21:14;;;;;;;13.32;9.93;;;;;;;23.43;41.35;99492.72;10339742;28;20057;-61
2021/07/23 19:26:35;;;;;;;16.00;9.35;;;;;;;23.07;41.83;99494.41;10349945;28;20069;-61
2021/07/23 19:31:37;;;;;;;10.80;8.80;;;;;;;22.86;42.63;99501.47;10357974;28;20092;-60
2021/07/23 19:36:39;;;;;;;10.65;7.60;;;;;;;22.89;42.79;99496.59;10350048;28;20050;-60
2021/07/23 19:41:41;;;;;;;12.15;8.88;;;;;;;22.81;42.59;99491.34;10344411;28;20052;-60
2021/07/23 19:46:42;;;;;;;11.10;8.23;;;;;;;22.73;43.47;99507.41;10365473;28;20494;-61
2021/07/23 19:51:44;;;;;;;16.60;8.60;;;;;;;22.68;44.82;99512.41;10344135;28;20038;-60
2021/07/23 19:56:46;;;;;;;9.65;7.80;;;;;;;22.52;44.67;99518.69;10350690;28;20163;-61
2021/07/23 20:01:48;;;;;;;10.07;7.97;;;;;;;22.36;45.21;99505.50;10353280;28;20279;-60
2021/07/23 20:06:50;;;;;;;15.20;11.15;;;;;;;21.76;46.37;99496.50;10358224;28;20092;-61
2021/07/23 20:11:52;;;;;;;14.15;8.52;;;;;;;21.59;46.95;99509.03;10360574;28;20152;-60
2021/07/23 20:16:54;;;;;;;13.13;8.77;;;;;;;21.67;46.73;99511.66;10351007;28;20070;-60
2021/07/23 20:21:56;;;;;;;10.90;8.95;;;;;;;21.55;47.29;99506.88;10340808;28;20161;-60
2021/07/23 20:26:57;;;;;;;14.55;9.20;;;;;;;21.39;47.78;99515.75;10335172;28;20056;-60
2021/07/23 20:31:59;;;;;;;10.35;7.88;;;;;;;20.94;48.99;99508.31;10359719;28;20049;-60
2021/07/23 20:37:02;;;;;;;14.90;8.13;;;;;;;21.00;48.88;99498.84;10360176;28;20053;-60
2021/07/23 20:42:04;;;;;;;13.18;9.23;;;;;;;20.85;48.86;99504.00;10341686;28;20125;-60
2021/07/23 20:47:06;;;;;;;13.35;8.57;;;;;;;20.71;49.19;99504.66;10346353;28;20405;-60
2021/07/23 20:52:08;;;;;;;15.25;9.82;;;;;;;20.44;49.79;99510.25;10350392;28;20491;-60
2021/07/23 20:57:12;;;;;;;12.05;8.80;;;;;;;20.28;50.53;99513.72;10361704;28;20065;-60
2021/07/23 21:02:14;;;;;;;11.65;8.93;;;;;;;20.36;50.27;99507.59;10357205;28;20076;-60
2021/07/23 21:07:16;;;;;;;15.45;9.50;;;;;;;20.34;50.69;99504.25;10340317;28;20459;-60
2021/07/23 21:12:20;;;;;;;11.30;9.25;;;;;;;20.28;50.72;99526.16;10348554;28;20581;-60
2021/07/23 21:17:22;;;;;;;14.65;9.43;;;;;;;20.21;50.83;99519.88;10346221;28;20046;-60
2021/07/23 21:22:24;;;;;;;12.13;8.82;;;;;;;20.11;51.13;99513.88;10337481;28;20069;-60
2021/07/23 21:27:27;;;;;;;10.82;9.02;;;;;;;19.98;51.30;99524.09;10352533;28;20056;-60
2021/07/23 21:32:29;;;;;;;12.45;9.38;;;;;;;19.87;51.64;99527.88;10361163;28;20370;-60
2021/07/23 21:37:31;;;;;;;15.05;9.65;;;;;;;19.83;52.02;99529.19;10357463;28;20045;-60
2021/07/23 21:42:33;;;;;;;13.35;9.90;;;;;;;19.52;52.52;99530.69;10335814;28;20054;-60
2021/07/23 21:47:34;;;;;;;18.00;10.80;;;;;;;19.01;53.50;99520.88;10350065;28;20133;-60
2021/07/23 21:52:36;;;;;;;12.65;9.85;;;;;;;18.97;53.78;99527.47;10330731;28;20145;-60
2021/07/23 21:57:38;;;;;;;15.48;10.82;;;;;;;18.89;53.82;99523.94;10330310;28;20140;-60
2021/07/23 22:02:39;;;;;;;14.32;10.05;;;;;;;18.44;54.64;99532.00;10371044;28;20140;-60
2021/07/23 22:07:41;;;;;;;13.60;10.93;;;;;;;18.59;54.76;99527.81;10368104;28;20422;-60
2021/07/23 22:12:43;;;;;;;15.18;10.20;;;;;;;18.80;54.26;99525.69;10358623;28;20046;-60
2021/07/23 22:17:45;;;;;;;14.00;10.40;;;;;;;18.76;54.19;99519.03;10353930;28;20428;-60
2021/07/23 22:22:46;;;;;;;15.38;11.48;;;;;;;18.17;55.36;99506.38;10366952;28;20481;-60
2021/07/23 22:27:48;;;;;;;16.13;11.77;;;;;;;17.76;56.64;99502.47;10352637;28;20050;-60
2021/07/23 22:32:50;;;;;;;14.45;10.70;;;;;;;18.03;56.51;99514.00;10332748;28;20061;-60
2021/07/23 22:37:52;;;;;;;12.98;11.20;;;;;;;18.14;55.96;99497.91;10349139;28;20052;-60
2021/07/23 22:42:53;;;;;;;17.50;12.30;;;;;;;17.52;57.56;99496.03;10386110;28;20056;-60
2021/07/23 22:47:55;;;;;;;13.48;10.60;;;;;;;17.62;57.43;99495.03;10362014;28;20060;-60
2021/07/23 22:52:58;;;;;;;12.55;10.65;;;;;;;17.98;57.15;99497.72;10355414;28;20487;-60
2021/07/23 22:58:00;;;;;;;14.18;11.05;;;;;;;18.10;56.78;99499.19;10362908;28;20562;-60
2021/07/23 23:03:02;;;;;;;16.15;11.80;;;;;;;17.99;56.71;99488.81;10348876;28;20125;-60
2021/07/23 23:08:04;;;;;;;13.98;10.55;;;;;;;17.87;56.99;99498.78;10357603;28;20103;-60